createdAt,value
2018-08-25T03:55:44.174Z,5.42
2018-08-25T03:59:52.091Z,5.10
2018-08-25T04:03:58.277Z,4.72
2018-08-25T04:08:05.112Z,5.30
2018-08-25T04:12:13.434Z,5.25
2018-08-25T04:16:21.775Z,5.20
2018-08-25T04:20:29.182Z,5.27
2018-08-25T04:24:36.964Z,6.00
2018-08-25T04:28:45.839Z,5.67
2018-08-25T04:32:51.482Z,5.33
2018-08-25T04:36:56.176Z,5.40
2018-08-25T09:13:50.068Z,4.50
2018-08-25T09:19:32.490Z,4.22
2018-08-25T09:23:52.043Z,4.08
2018-08-25T09:28:12.013Z,4.42
2018-08-25T09:32:29.337Z,3.98
2018-08-25T14:36:46.001Z,2.75
2018-08-25T15:59:17.930Z,3.20
2018-08-25T18:50:08.421Z,2.87
2018-08-25T22:25:41.450Z,2.50
2018-08-25T22:29:45.149Z,3.30
2018-08-25T22:33:54.713Z,3.17
2018-08-25T22:38:01.525Z,3.07
2018-08-25T22:42:05.525Z,3.43
2018-08-25T22:46:10.072Z,3.47
2018-08-25T22:50:14.788Z,3.30
2018-08-25T22:54:25.871Z,3.27
2018-08-25T22:58:30.968Z,3.00
2018-08-25T23:02:36.565Z,3.00
2018-08-25T23:06:42.789Z,3.27
2018-08-25T23:10:47.301Z,3.10
2018-08-25T23:14:54.402Z,3.03
2018-08-25T23:18:59.516Z,2.80
2018-08-25T23:23:05.027Z,2.37
2018-08-25T23:27:09.613Z,2.23
2018-08-25T23:31:14.542Z,2.13
2018-08-25T23:35:18.534Z,2.10
2018-08-25T23:39:22.570Z,2.00
2018-08-25T23:43:27.178Z,2.47
2018-08-25T23:47:31.067Z,2.10
2018-08-25T23:51:34.878Z,2.33
2018-08-25T23:55:39.276Z,2.07
2018-08-25T23:59:43.173Z,2.00
